| time (UTC) | temp F | wind direction | speed MPH | gust MPH | rain 1hr in | rain 24hr in | rain mn in | humidity % | barometer mb |
| 20260510093022 | 51 | 280 | 0.0 | 0.0 | 0.00 | 0.26 | 0.00 | 1 | 1011.1 |
| 20260510091517 | 51 | 281 | 0.0 | 0.0 | 0.00 | 0.26 | 0.00 | 1 | 1010.8 |
| 20260510090013 | 51 | 281 | 0.0 | 0.0 | 0.00 | 0.26 | 0.00 | 1 | 1010.9 |
| 20260510084509 | 51 | 281 | 0.0 | 0.0 | 0.00 | 0.26 | 0.00 | 1 | 1011.2 |
| 20260510083004 | 51 | 281 | 0.0 | 0.0 | 0.00 | 0.26 | 0.00 | 1 | 1011.0 |
| 20260510081607 | 51 | 282 | 0.0 | 1.0 | 0.00 | 0.26 | 0.00 | 1 | 1011.4 |
| 20260510074553 | 50 | 198 | 0.0 | 0.0 | 0.00 | 0.26 | 0.00 | 1 | 1010.4 |
| 20260510073051 | 50 | 197 | 0.0 | 0.0 | 0.00 | 0.26 | 0.00 | 1 | 1010.5 |
| 20260510071545 | 50 | 197 | 0.0 | 0.0 | 0.00 | 0.26 | 0.00 | 1 | 1010.5 |
| 20260510070046 | 50 | 197 | 0.0 | 0.0 | 0.00 | 0.26 | 0.00 | 1 | 1010.5 |
| 20260510064537 | 49 | 250 | 0.0 | 0.0 | 0.00 | 0.26 | 0.00 | 1 | 1010.5 |
| 20260510063035 | 49 | 250 | 0.0 | 0.0 | 0.00 | 0.26 | 0.00 | 1 | 1010.3 |
| 20260510061524 | 49 | 250 | 0.0 | 0.0 | 0.00 | 0.26 | 0.00 | 1 | 1010.0 |
| 20260510060033 | 49 | 250 | 0.0 | 0.0 | 0.00 | 0.26 | 0.00 | 1 | 1010.1 |
| 20260510054518 | 49 | 250 | 0.0 | 0.0 | 0.00 | 0.26 | 0.00 | 1 | 1010.2 |
| 20260510053011 | 50 | 250 | 0.0 | 0.0 | 0.00 | 0.26 | 0.00 | 1 | 1010.3 |
| 20260510051508 | 50 | 250 | 0.0 | 0.0 | 0.00 | 0.26 | 0.00 | 1 | 1010.4 |
| 20260510050003 | 49 | 250 | 0.0 | 0.0 | 0.00 | 0.26 | 0.00 | 1 | 1010.4 |
| 20260510044558 | 49 | 250 | 0.0 | 0.0 | 0.00 | 0.26 | 0.00 | 1 | 1010.5 |
| 20260510043054 | 49 | 250 | 0.0 | 0.0 | 0.00 | 0.26 | 0.00 | 1 | 1010.6 |
| 20260510041551 | 49 | 250 | 0.0 | 0.0 | 0.00 | 0.26 | 0.00 | 1 | 1010.6 |
| 20260510040046 | 49 | 250 | 0.0 | 0.0 | 0.00 | 0.26 | 0.00 | 1 | 1010.7 |
| 20260510034540 | 49 | 250 | 0.0 | 0.0 | 0.00 | 0.26 | 0.26 | 1 | 1010.6 |
| 20260510033046 | 49 | 250 | 0.0 | 0.0 | 0.00 | 0.26 | 0.26 | 1 | 1010.6 |
| 20260510031532 | 49 | 250 | 0.0 | 0.0 | 0.00 | 0.26 | 0.26 | 1 | 1010.5 |
| 20260510030027 | 50 | 250 | 0.0 | 0.0 | 0.00 | 0.26 | 0.26 | 1 | 1010.2 |
| 20260510024523 | 50 | 250 | 0.0 | 0.0 | 0.00 | 0.26 | 0.26 | 1 | 1010.2 |
| 20260510023018 | 50 | 250 | 0.0 | 0.0 | 0.00 | 0.26 | 0.26 | 1 | 1010.2 |
| 20260510021531 | 51 | 250 | 0.0 | 0.0 | 0.00 | 0.26 | 0.26 | 1 | 1010.1 |
| 20260510020010 | 51 | 250 | 0.0 | 0.0 | 0.00 | 0.26 | 0.26 | 1 | 1010.1 |
| 20260510014510 | 52 | 250 | 0.0 | 0.0 | 0.00 | 0.26 | 0.26 | 1 | 1009.9 |
| 20260510013123 | 52 | 250 | 0.0 | 0.0 | 0.00 | 0.26 | 0.26 | 1 | 1010.0 |
| 20260510011556 | 52 | 250 | 0.0 | 0.0 | 0.00 | 0.26 | 0.26 | 1 | 1009.9 |
| 20260510010058 | 53 | 250 | 0.0 | 0.0 | 0.00 | 0.26 | 0.26 | 1 | 1009.7 |
| 20260510004544 | 53 | 250 | 0.0 | 0.0 | 0.00 | 0.26 | 0.26 | 1 | 1009.4 |
| 20260510003041 | 54 | 250 | 0.0 | 0.0 | 0.00 | 0.26 | 0.26 | 1 | 1009.4 |
| 20260510001536 | 55 | 250 | 0.0 | 0.0 | 0.00 | 0.26 | 0.26 | 1 | 1009.4 |
| 20260510000032 | 56 | 250 | 0.0 | 0.0 | 0.00 | 0.26 | 0.26 | 1 | 1009.3 |
| 20260509234527 | 57 | 250 | 0.0 | 0.0 | 0.00 | 0.26 | 0.26 | 1 | 1009.3 |
| 20260509233031 | 57 | 250 | 0.0 | 0.0 | 0.00 | 0.26 | 0.26 | 1 | 1009.4 |
| 20260509231519 | 57 | 250 | 0.0 | 0.0 | 0.00 | 0.26 | 0.26 | 1 | 1009.4 |
| 20260509230023 | 58 | 250 | 0.0 | 0.0 | 0.00 | 0.26 | 0.26 | 1 | 1009.3 |
| 20260509224509 | 59 | 250 | 0.0 | 0.0 | 0.00 | 0.26 | 0.26 | 1 | 1009.3 |
| 20260509223006 | 59 | 255 | 0.0 | 0.0 | 0.00 | 0.26 | 0.26 | 1 | 1009.3 |
| 20260509221502 | 59 | 256 | 0.0 | 0.0 | 0.00 | 0.26 | 0.26 | 1 | 1009.3 |
| 20260509220058 | 59 | 256 | 0.0 | 0.0 | 0.00 | 0.26 | 0.26 | 1 | 1009.1 |
| 20260509214552 | 60 | 255 | 0.0 | 0.0 | 0.00 | 0.26 | 0.26 | 1 | 1009.1 |
| 20260509213103 | 59 | 257 | 0.0 | 0.0 | 0.00 | 0.26 | 0.26 | 1 | 1009.3 |
| 20260509211543 | 58 | 257 | 0.0 | 0.0 | 0.00 | 0.26 | 0.26 | 1 | 1009.4 |
| 20260509210045 | 59 | 257 | 0.0 | 0.0 | 0.04 | 0.26 | 0.26 | 1 | 1009.4 |
| 20260509204534 | 60 | 248 | 0.0 | 0.0 | 0.04 | 0.26 | 0.26 | 1 | 1009.4 |
| 20260509203032 | 58 | 242 | 0.0 | 0.0 | 0.05 | 0.26 | 0.26 | 1 | 1009.5 |
| 20260509201526 | 57 | 243 | 0.0 | 0.0 | 0.06 | 0.26 | 0.26 | 1 | 1009.4 |
| 20260509200022 | 58 | 231 | 0.0 | 1.0 | 0.03 | 0.22 | 0.22 | 1 | 1009.6 |
| 20260509194527 | 58 | 231 | 0.0 | 0.0 | 0.05 | 0.22 | 0.22 | 1 | 1009.8 |
| 20260509193021 | 57 | 231 | 0.0 | 0.0 | 0.04 | 0.21 | 0.21 | 1 | 1010.0 |
| 20260509191508 | 57 | 231 | 0.0 | 1.0 | 0.04 | 0.20 | 0.20 | 1 | 1010.2 |
| 20260509190006 | 57 | 269 | 0.0 | 2.0 | 0.05 | 0.18 | 0.18 | 1 | 1010.5 |
| 20260509184610 | 58 | 245 | 0.0 | 0.0 | 0.06 | 0.17 | 0.17 | 1 | 1010.7 |
| 20260509183059 | 57 | 135 | 0.0 | 0.0 | 0.07 | 0.17 | 0.17 | 1 | 1010.8 |
| 20260509181554 | 57 | 135 | 0.0 | 0.0 | 0.10 | 0.16 | 0.16 | 1 | 1010.9 |
| 20260509180056 | 57 | 129 | 0.0 | 0.0 | 0.07 | 0.13 | 0.13 | 1 | 1011.1 |
| 20260509174546 | 57 | 226 | 0.0 | 0.0 | 0.06 | 0.11 | 0.11 | 1 | 1011.1 |
| 20260509173052 | 57 | 232 | 0.0 | 0.0 | 0.05 | 0.09 | 0.09 | 1 | 1010.9 |
| 20260509171538 | 58 | 225 | 0.0 | 0.0 | 0.04 | 0.06 | 0.06 | 1 | 1010.7 |
| 20260509170029 | 58 | 225 | 0.0 | 0.0 | 0.05 | 0.05 | 0.05 | 1 | 1010.6 |
| 20260509164524 | 58 | 225 | 0.0 | 0.0 | 0.05 | 0.05 | 0.05 | 4 | 1010.8 |
| 20260509163019 | 57 | 225 | 0.0 | 1.0 | 0.04 | 0.04 | 0.04 | 25 | 1010.9 |
| 20260509161516 | 58 | 203 | 0.0 | 2.0 | 0.02 | 0.02 | 0.02 | 38 | 1011.1 |
| 20260509160011 | 60 | 71 | 0.0 | 1.0 | 0.00 | 0.00 | 0.00 | 45 | 1011.4 |
| 20260509154506 | 61 | 259 | 0.0 | 4.0 | 0.00 | 0.00 | 0.00 | 51 | 1011.3 |
| 20260509153003 | 61 | 117 | 0.0 | 4.0 | 0.00 | 0.00 | 0.00 | 55 | 1011.7 |
| 20260509151557 | 62 | 135 | 1.0 | 4.0 | 0.00 | 0.00 | 0.00 | 55 | 1011.2 |
| 20260509150052 | 62 | 264 | 0.0 | 2.0 | 0.00 | 0.00 | 0.00 | 54 | 1011.3 |
| 20260509144550 | 61 | 252 | 1.0 | 5.0 | 0.00 | 0.00 | 0.00 | 54 | 1011.3 |
| 20260509143043 | 61 | 267 | 0.0 | 2.0 | 0.00 | 0.00 | 0.00 | 53 | 1011.0 |
| 20260509141542 | 60 | 49 | 0.0 | 4.0 | 0.00 | 0.00 | 0.00 | 52 | 1011.0 |
| 20260509140045 | 60 | 105 | 0.0 | 3.0 | 0.00 | 0.00 | 0.00 | 49 | 1011.0 |
| 20260509134530 | 60 | 352 | 0.0 | 4.0 | 0.00 | 0.00 | 0.00 | 45 | 1010.8 |
| 20260509133026 | 59 | 253 | 0.0 | 0.0 | 0.00 | 0.00 | 0.00 | 42 | 1010.9 |
| 20260509131523 | 59 | 304 | 0.0 | 0.0 | 0.00 | 0.00 | 0.00 | 39 | 1010.9 |
| 20260509130016 | 58 | 269 | 0.0 | 2.0 | 0.00 | 0.00 | 0.00 | 34 | 1011.0 |
| 20260509124511 | 56 | 284 | 0.0 | 1.0 | 0.00 | 0.00 | 0.00 | 24 | 1011.0 |
| 20260509123009 | 55 | 193 | 0.0 | 1.0 | 0.00 | 0.00 | 0.00 | 10 | 1011.1 |
| 20260509121507 | 54 | 349 | 0.0 | 0.0 | 0.00 | 0.00 | 0.00 | 2 | 1011.1 |
| 20260509120002 | 53 | 352 | 0.0 | 0.0 | 0.00 | 0.00 | 0.00 | 11 | 1011.1 |
| 20260509114600 | 52 | 351 | 0.0 | 0.0 | 0.00 | 0.00 | 0.00 | 16 | 1011.0 |
| 20260509113058 | 52 | 352 | 0.0 | 0.0 | 0.00 | 0.00 | 0.00 | 24 | 1011.0 |
| 20260509111559 | 52 | 351 | 0.0 | 0.0 | 0.00 | 0.00 | 0.00 | 26 | 1010.9 |
| 20260509110055 | 52 | 352 | 0.0 | 0.0 | 0.00 | 0.00 | 0.00 | 30 | 1010.9 |
| 20260509104559 | 52 | 352 | 0.0 | 0.0 | 0.00 | 0.00 | 0.00 | 33 | 1011.0 |
| 20260509103104 | 52 | 352 | 0.0 | 0.0 | 0.00 | 0.00 | 0.00 | 37 | 1010.9 |
| 20260509101554 | 53 | 352 | 0.0 | 0.0 | 0.00 | 0.00 | 0.00 | 41 | 1010.8 |
| 20260509100050 | 53 | 352 | 0.0 | 0.0 | 0.00 | 0.00 | 0.00 | 44 | 1010.7 |
| 20260509094556 | 53 | 351 | 0.0 | 0.0 | 0.00 | 0.00 | 0.00 | 46 | 1010.7 |